Airfield :
LOGIN :

Register | Disclaimer

   EN    FR    IT 

 










Legend :    VFR   Marginal VFR   IFR   Intensive IFR   Very Intensive IFR
Visi :
Ceiling :
>= 8 km
>= 3000ft
5 to 8 km
1000 to 3000 ft
1500m to 5 km
500 to 1000 ft
800 to 1500m
200 to 500 ft
< 800m
< 200 ft
Symbols :   Thunderstorms  Fog  Heavy snow  Heavy precipitations  Wind > 20 kt
SIGMETs :     Misc.  Thunderstorms  Icing  Turbulence  Mountain Waves  Volcanic Ashes






- Airport Elevation : 218 ft


EGYD - RAF Cranwell

CURRENT METAR :
  • 290820Z 34013KT 9999 SCT023 10/05 Q1021 BECMG SCT025 RMK WHT BECMG BLU

EXPIRED METARs :
  • 290750Z 34013KT 9999 SCT020 10/05 Q1021 BECMG SCT025 RMK WHT BECMG BLU
  • 290720Z 34012KT 9999 FEW018 10/05 Q1021 NOSIG RMK BLU BLU
  • 290650Z 34011KT 9999 FEW017 FEW060 09/06 Q1021 NOSIG RMK BLU BLU
  • 290620Z AUTO 35010KT 9999 FEW013/// 09/06 Q1021
  • 290550Z AUTO 33008KT 9999 FEW066/// 08/06 Q1021
  • 290520Z AUTO 32007KT 9999 NCD 07/06 Q1021

TAF TAF EGYD
Valid from the 29 at 09:00 until the 29 at 17:00 UTC


290736Z 2909/2917 34010KT 9999 SCT030
PROB30
TEMPO 2909/2910 SCT023
PROB30
TEMPO 2910/2917 7000 SHRA



MET'MAP, your aeronautical weather chart ! - Copyright ORBIFLY December 2007 - Disclaimer

ORBIFLY MET'MAP TEAM :

Programming & Development : Alexandra Zaïnal
Original concept : Baudouin d'Aumeries
Technical & hardware support : Manuel Goepfert
Assistance : Marc-Olivier Méhu

Contact : metmap@orbifly.com




SOURCES & CREDITS :

   NOAA